Terminal Aerodrome Forecast
Issued by NWS

Home | Current Version | Previous Version | Text Only | Print | Product List | Glossary On
Versions: 1 2 3 4 5 6 7 8 9 10 11 12
000
FTUS45 KVEF 160536
TAFHND
TAF
KHND 160536Z 1606/1706 20006KT P6SM BKN250
     FM160800 24006KT P6SM BKN200
     FM161800 36007KT P6SM SCT100 BKN150
     FM170500 35010KT P6SM SCT090 BKN120=

USA.gov is the U.S. government's official web portal to all federal, state and local government web resources and services.